sensor_id;sensor_type;location;lat;lon;timestamp;P1;durP1;ratioP1;P2;durP2;ratioP2
24961;SDS011;12992;50.884;13.668;2023-10-31T00:01:46;2.78;;;2.03;;
24961;SDS011;12992;50.884;13.668;2023-10-31T00:04:11;1.95;;;1.48;;
24961;SDS011;12992;50.884;13.668;2023-10-31T00:06:36;5.25;;;2.63;;
24961;SDS011;12992;50.884;13.668;2023-10-31T00:09:02;3.90;;;2.85;;
24961;SDS011;12992;50.884;13.668;2023-10-31T00:11:27;3.10;;;2.15;;
24961;SDS011;12992;50.884;13.668;2023-10-31T00:13:52;4.13;;;2.22;;
24961;SDS011;12992;50.884;13.668;2023-10-31T00:16:18;3.22;;;2.60;;
24961;SDS011;12992;50.884;13.668;2023-10-31T00:18:43;5.85;;;3.42;;
24961;SDS011;12992;50.884;13.668;2023-10-31T00:21:08;3.15;;;2.80;;
24961;SDS011;12992;50.884;13.668;2023-10-31T00:23:34;3.17;;;2.42;;
24961;SDS011;12992;50.884;13.668;2023-10-31T00:25:59;4.75;;;2.40;;
24961;SDS011;12992;50.884;13.668;2023-10-31T00:28:24;4.05;;;2.00;;
24961;SDS011;12992;50.884;13.668;2023-10-31T00:30:50;2.38;;;1.98;;
24961;SDS011;12992;50.884;13.668;2023-10-31T00:33:15;2.55;;;2.03;;
24961;SDS011;12992;50.884;13.668;2023-10-31T00:35:40;3.90;;;2.22;;
24961;SDS011;12992;50.884;13.668;2023-10-31T00:38:06;5.03;;;2.08;;
24961;SDS011;12992;50.884;13.668;2023-10-31T00:40:31;2.90;;;1.85;;
24961;SDS011;12992;50.884;13.668;2023-10-31T00:42:56;2.75;;;2.03;;
24961;SDS011;12992;50.884;13.668;2023-10-31T00:45:23;3.03;;;1.95;;
24961;SDS011;12992;50.884;13.668;2023-10-31T00:47:48;1.67;;;1.58;;
24961;SDS011;12992;50.884;13.668;2023-10-31T00:50:14;3.20;;;1.90;;
24961;SDS011;12992;50.884;13.668;2023-10-31T00:52:39;2.95;;;2.03;;
24961;SDS011;12992;50.884;13.668;2023-10-31T00:55:05;4.95;;;2.05;;
24961;SDS011;12992;50.884;13.668;2023-10-31T00:57:30;2.22;;;1.85;;
24961;SDS011;12992;50.884;13.668;2023-10-31T00:59:55;3.55;;;2.30;;
24961;SDS011;12992;50.884;13.668;2023-10-31T01:02:22;3.00;;;1.77;;
24961;SDS011;12992;50.884;13.668;2023-10-31T01:04:47;3.22;;;2.30;;
24961;SDS011;12992;50.884;13.668;2023-10-31T01:07:13;3.70;;;2.17;;
24961;SDS011;12992;50.884;13.668;2023-10-31T01:09:42;3.30;;;2.33;;
24961;SDS011;12992;50.884;13.668;2023-10-31T01:12:07;2.97;;;2.10;;
24961;SDS011;12992;50.884;13.668;2023-10-31T01:14:35;2.88;;;2.03;;
24961;SDS011;12992;50.884;13.668;2023-10-31T01:17:00;3.63;;;2.40;;
24961;SDS011;12992;50.884;13.668;2023-10-31T01:19:25;3.20;;;2.60;;
24961;SDS011;12992;50.884;13.668;2023-10-31T01:21:51;3.50;;;2.30;;
24961;SDS011;12992;50.884;13.668;2023-10-31T01:24:16;5.18;;;2.28;;
24961;SDS011;12992;50.884;13.668;2023-10-31T01:26:42;4.05;;;2.67;;
24961;SDS011;12992;50.884;13.668;2023-10-31T01:29:07;2.78;;;1.90;;
24961;SDS011;12992;50.884;13.668;2023-10-31T01:31:33;2.20;;;1.55;;
24961;SDS011;12992;50.884;13.668;2023-10-31T01:33:59;5.28;;;2.50;;
24961;SDS011;12992;50.884;13.668;2023-10-31T01:36:25;3.38;;;2.20;;
24961;SDS011;12992;50.884;13.668;2023-10-31T01:38:51;2.72;;;2.10;;
24961;SDS011;12992;50.884;13.668;2023-10-31T01:41:17;4.10;;;3.17;;
24961;SDS011;12992;50.884;13.668;2023-10-31T01:43:42;6.28;;;3.33;;
24961;SDS011;12992;50.884;13.668;2023-10-31T01:46:08;3.55;;;2.75;;
24961;SDS011;12992;50.884;13.668;2023-10-31T01:48:34;4.55;;;3.05;;
24961;SDS011;12992;50.884;13.668;2023-10-31T01:51:01;5.78;;;3.10;;
24961;SDS011;12992;50.884;13.668;2023-10-31T01:53:29;4.50;;;3.20;;
24961;SDS011;12992;50.884;13.668;2023-10-31T01:55:58;6.38;;;3.33;;
24961;SDS011;12992;50.884;13.668;2023-10-31T01:58:28;3.53;;;2.40;;
24961;SDS011;12992;50.884;13.668;2023-10-31T02:00:57;3.55;;;2.70;;
24961;SDS011;12992;50.884;13.668;2023-10-31T02:03:22;4.63;;;3.00;;
24961;SDS011;12992;50.884;13.668;2023-10-31T02:05:48;4.97;;;3.05;;
24961;SDS011;12992;50.884;13.668;2023-10-31T02:08:13;4.78;;;3.00;;
24961;SDS011;12992;50.884;13.668;2023-10-31T02:10:39;5.65;;;3.60;;
24961;SDS011;12992;50.884;13.668;2023-10-31T02:13:13;6.35;;;3.53;;
24961;SDS011;12992;50.884;13.668;2023-10-31T02:15:41;3.80;;;3.03;;
24961;SDS011;12992;50.884;13.668;2023-10-31T02:18:07;6.68;;;3.50;;
24961;SDS011;12992;50.884;13.668;2023-10-31T02:20:33;6.03;;;3.75;;
24961;SDS011;12992;50.884;13.668;2023-10-31T02:22:59;4.35;;;2.83;;
24961;SDS011;12992;50.884;13.668;2023-10-31T02:25:24;5.35;;;3.50;;
24961;SDS011;12992;50.884;13.668;2023-10-31T02:27:50;6.00;;;3.50;;
24961;SDS011;12992;50.884;13.668;2023-10-31T02:30:16;4.50;;;3.00;;
24961;SDS011;12992;50.884;13.668;2023-10-31T02:32:41;5.07;;;3.42;;
24961;SDS011;12992;50.884;13.668;2023-10-31T02:35:07;6.38;;;3.35;;
24961;SDS011;12992;50.884;13.668;2023-10-31T02:37:33;8.95;;;3.47;;
24961;SDS011;12992;50.884;13.668;2023-10-31T02:39:58;7.43;;;4.25;;
24961;SDS011;12992;50.884;13.668;2023-10-31T02:42:25;6.50;;;3.67;;
24961;SDS011;12992;50.884;13.668;2023-10-31T02:44:51;7.93;;;4.40;;
24961;SDS011;12992;50.884;13.668;2023-10-31T02:47:16;8.38;;;4.10;;
24961;SDS011;12992;50.884;13.668;2023-10-31T02:49:41;8.95;;;4.38;;
24961;SDS011;12992;50.884;13.668;2023-10-31T02:52:07;6.55;;;3.90;;
24961;SDS011;12992;50.884;13.668;2023-10-31T02:54:32;9.63;;;4.18;;
24961;SDS011;12992;50.884;13.668;2023-10-31T02:56:58;6.47;;;3.47;;
24961;SDS011;12992;50.884;13.668;2023-10-31T02:59:23;8.10;;;3.85;;
24961;SDS011;12992;50.884;13.668;2023-10-31T03:01:48;6.72;;;3.40;;
24961;SDS011;12992;50.884;13.668;2023-10-31T03:04:14;5.03;;;2.88;;
24961;SDS011;12992;50.884;13.668;2023-10-31T03:06:39;6.53;;;3.47;;
24961;SDS011;12992;50.884;13.668;2023-10-31T03:09:04;8.63;;;3.40;;
24961;SDS011;12992;50.884;13.668;2023-10-31T03:11:32;6.15;;;3.70;;
24961;SDS011;12992;50.884;13.668;2023-10-31T03:13:58;6.75;;;3.55;;
24961;SDS011;12992;50.884;13.668;2023-10-31T03:16:23;5.30;;;3.22;;
24961;SDS011;12992;50.884;13.668;2023-10-31T03:18:49;4.75;;;2.70;;
24961;SDS011;12992;50.884;13.668;2023-10-31T03:21:14;5.18;;;2.90;;
24961;SDS011;12992;50.884;13.668;2023-10-31T03:23:41;5.22;;;3.13;;
24961;SDS011;12992;50.884;13.668;2023-10-31T03:26:07;5.03;;;2.92;;
24961;SDS011;12992;50.884;13.668;2023-10-31T03:28:32;3.72;;;2.30;;
24961;SDS011;12992;50.884;13.668;2023-10-31T03:30:58;4.50;;;2.60;;
24961;SDS011;12992;50.884;13.668;2023-10-31T03:33:23;4.00;;;2.50;;
24961;SDS011;12992;50.884;13.668;2023-10-31T03:35:49;3.90;;;2.40;;
24961;SDS011;12992;50.884;13.668;2023-10-31T03:38:14;4.70;;;3.00;;
24961;SDS011;12992;50.884;13.668;2023-10-31T03:40:40;2.90;;;2.10;;
24961;SDS011;12992;50.884;13.668;2023-10-31T03:43:05;3.30;;;1.77;;
24961;SDS011;12992;50.884;13.668;2023-10-31T03:45:30;2.80;;;1.85;;
24961;SDS011;12992;50.884;13.668;2023-10-31T03:47:58;3.25;;;2.25;;
24961;SDS011;12992;50.884;13.668;2023-10-31T03:50:23;2.75;;;1.85;;
24961;SDS011;12992;50.884;13.668;2023-10-31T03:52:49;1.67;;;1.58;;
24961;SDS011;12992;50.884;13.668;2023-10-31T03:55:14;2.85;;;1.50;;
24961;SDS011;12992;50.884;13.668;2023-10-31T03:57:39;1.73;;;1.52;;
24961;SDS011;12992;50.884;13.668;2023-10-31T04:00:05;5.68;;;1.83;;
24961;SDS011;12992;50.884;13.668;2023-10-31T04:02:39;1.55;;;1.23;;
24961;SDS011;12992;50.884;13.668;2023-10-31T04:05:05;1.52;;;1.10;;
24961;SDS011;12992;50.884;13.668;2023-10-31T04:07:33;1.08;;;0.88;;
24961;SDS011;12992;50.884;13.668;2023-10-31T04:09:58;1.23;;;1.10;;
24961;SDS011;12992;50.884;13.668;2023-10-31T04:12:23;1.17;;;1.08;;
24961;SDS011;12992;50.884;13.668;2023-10-31T04:14:49;1.10;;;1.00;;
24961;SDS011;12992;50.884;13.668;2023-10-31T04:17:14;1.85;;;0.85;;
24961;SDS011;12992;50.884;13.668;2023-10-31T04:19:39;1.25;;;1.15;;
24961;SDS011;12992;50.884;13.668;2023-10-31T04:22:05;0.57;;;0.57;;
24961;SDS011;12992;50.884;13.668;2023-10-31T04:24:30;0.77;;;0.73;;
24961;SDS011;12992;50.884;13.668;2023-10-31T04:26:56;0.65;;;0.65;;
24961;SDS011;12992;50.884;13.668;2023-10-31T04:29:21;1.20;;;0.88;;
24961;SDS011;12992;50.884;13.668;2023-10-31T04:31:47;1.25;;;0.63;;
24961;SDS011;12992;50.884;13.668;2023-10-31T04:34:12;1.38;;;0.70;;
24961;SDS011;12992;50.884;13.668;2023-10-31T04:36:38;0.63;;;0.63;;
24961;SDS011;12992;50.884;13.668;2023-10-31T04:39:04;0.80;;;0.73;;
24961;SDS011;12992;50.884;13.668;2023-10-31T04:41:29;0.40;;;0.40;;
24961;SDS011;12992;50.884;13.668;2023-10-31T04:43:54;0.68;;;0.68;;
24961;SDS011;12992;50.884;13.668;2023-10-31T04:46:20;0.88;;;0.70;;
24961;SDS011;12992;50.884;13.668;2023-10-31T04:48:45;1.40;;;0.50;;
24961;SDS011;12992;50.884;13.668;2023-10-31T04:51:11;1.25;;;1.10;;
24961;SDS011;12992;50.884;13.668;2023-10-31T04:53:36;0.75;;;0.63;;
24961;SDS011;12992;50.884;13.668;2023-10-31T04:56:01;0.60;;;0.47;;
24961;SDS011;12992;50.884;13.668;2023-10-31T04:58:27;0.85;;;0.40;;
24961;SDS011;12992;50.884;13.668;2023-10-31T05:00:52;0.70;;;0.50;;
24961;SDS011;12992;50.884;13.668;2023-10-31T05:03:18;1.08;;;0.63;;
24961;SDS011;12992;50.884;13.668;2023-10-31T05:05:43;0.50;;;0.50;;
24961;SDS011;12992;50.884;13.668;2023-10-31T05:08:09;0.40;;;0.40;;
24961;SDS011;12992;50.884;13.668;2023-10-31T05:10:34;0.50;;;0.32;;
24961;SDS011;12992;50.884;13.668;2023-10-31T05:13:00;0.50;;;0.50;;
24961;SDS011;12992;50.884;13.668;2023-10-31T05:15:27;0.70;;;0.40;;
24961;SDS011;12992;50.884;13.668;2023-10-31T05:17:53;0.45;;;0.45;;
24961;SDS011;12992;50.884;13.668;2023-10-31T05:20:18;0.50;;;0.50;;
24961;SDS011;12992;50.884;13.668;2023-10-31T05:22:43;0.50;;;0.50;;
24961;SDS011;12992;50.884;13.668;2023-10-31T05:25:09;0.70;;;0.70;;
24961;SDS011;12992;50.884;13.668;2023-10-31T05:27:34;0.63;;;0.63;;
24961;SDS011;12992;50.884;13.668;2023-10-31T05:30:00;0.30;;;0.30;;
24961;SDS011;12992;50.884;13.668;2023-10-31T05:32:25;0.38;;;0.38;;
24961;SDS011;12992;50.884;13.668;2023-10-31T05:34:50;0.32;;;0.32;;
24961;SDS011;12992;50.884;13.668;2023-10-31T05:37:16;0.90;;;0.60;;
24961;SDS011;12992;50.884;13.668;2023-10-31T05:39:41;0.50;;;0.50;;
24961;SDS011;12992;50.884;13.668;2023-10-31T05:42:06;0.50;;;0.45;;
24961;SDS011;12992;50.884;13.668;2023-10-31T05:44:32;0.40;;;0.40;;
24961;SDS011;12992;50.884;13.668;2023-10-31T05:46:57;0.47;;;0.45;;
24961;SDS011;12992;50.884;13.668;2023-10-31T05:49:22;0.55;;;0.47;;
24961;SDS011;12992;50.884;13.668;2023-10-31T05:51:51;0.52;;;0.50;;
24961;SDS011;12992;50.884;13.668;2023-10-31T05:54:17;0.40;;;0.40;;
24961;SDS011;12992;50.884;13.668;2023-10-31T05:56:42;0.43;;;0.40;;
24961;SDS011;12992;50.884;13.668;2023-10-31T05:59:09;0.40;;;0.40;;
24961;SDS011;12992;50.884;13.668;2023-10-31T06:01:35;0.35;;;0.35;;
24961;SDS011;12992;50.884;13.668;2023-10-31T06:04:00;0.25;;;0.25;;
24961;SDS011;12992;50.884;13.668;2023-10-31T06:06:26;0.25;;;0.20;;
24961;SDS011;12992;50.884;13.668;2023-10-31T06:08:51;1.10;;;0.60;;
24961;SDS011;12992;50.884;13.668;2023-10-31T06:11:16;0.30;;;0.30;;
24961;SDS011;12992;50.884;13.668;2023-10-31T06:13:42;0.30;;;0.30;;
24961;SDS011;12992;50.884;13.668;2023-10-31T06:16:07;0.22;;;0.22;;
24961;SDS011;12992;50.884;13.668;2023-10-31T06:18:33;0.30;;;0.30;;
24961;SDS011;12992;50.884;13.668;2023-10-31T06:20:59;0.20;;;0.20;;
24961;SDS011;12992;50.884;13.668;2023-10-31T06:23:25;0.50;;;0.50;;
24961;SDS011;12992;50.884;13.668;2023-10-31T06:25:50;0.52;;;0.50;;
24961;SDS011;12992;50.884;13.668;2023-10-31T06:28:15;0.40;;;0.40;;
24961;SDS011;12992;50.884;13.668;2023-10-31T06:30:41;0.20;;;0.20;;
24961;SDS011;12992;50.884;13.668;2023-10-31T06:33:06;0.28;;;0.28;;
24961;SDS011;12992;50.884;13.668;2023-10-31T06:35:33;0.80;;;0.40;;
24961;SDS011;12992;50.884;13.668;2023-10-31T06:38:00;0.43;;;0.25;;
24961;SDS011;12992;50.884;13.668;2023-10-31T06:40:26;0.30;;;0.30;;
24961;SDS011;12992;50.884;13.668;2023-10-31T06:42:51;0.22;;;0.22;;
24961;SDS011;12992;50.884;13.668;2023-10-31T06:45:17;0.50;;;0.40;;
24961;SDS011;12992;50.884;13.668;2023-10-31T06:47:42;0.30;;;0.30;;
24961;SDS011;12992;50.884;13.668;2023-10-31T06:50:08;0.28;;;0.28;;
24961;SDS011;12992;50.884;13.668;2023-10-31T06:52:34;0.38;;;0.30;;
24961;SDS011;12992;50.884;13.668;2023-10-31T06:54:59;0.25;;;0.25;;
24961;SDS011;12992;50.884;13.668;2023-10-31T06:57:24;0.40;;;0.32;;
24961;SDS011;12992;50.884;13.668;2023-10-31T06:59:50;0.30;;;0.30;;
24961;SDS011;12992;50.884;13.668;2023-10-31T07:02:15;0.10;;;0.10;;
24961;SDS011;12992;50.884;13.668;2023-10-31T07:04:40;0.20;;;0.20;;
24961;SDS011;12992;50.884;13.668;2023-10-31T07:07:06;0.17;;;0.17;;
24961;SDS011;12992;50.884;13.668;2023-10-31T07:09:31;0.10;;;0.10;;
24961;SDS011;12992;50.884;13.668;2023-10-31T07:11:56;0.30;;;0.30;;
24961;SDS011;12992;50.884;13.668;2023-10-31T07:14:22;0.20;;;0.20;;
24961;SDS011;12992;50.884;13.668;2023-10-31T07:16:47;0.10;;;0.10;;
24961;SDS011;12992;50.884;13.668;2023-10-31T07:19:13;0.30;;;0.30;;
24961;SDS011;12992;50.884;13.668;2023-10-31T07:21:39;0.15;;;0.15;;
24961;SDS011;12992;50.884;13.668;2023-10-31T07:24:04;0.35;;;0.20;;
24961;SDS011;12992;50.884;13.668;2023-10-31T07:26:30;0.30;;;0.30;;
24961;SDS011;12992;50.884;13.668;2023-10-31T07:28:55;0.17;;;0.17;;
24961;SDS011;12992;50.884;13.668;2023-10-31T07:31:21;0.77;;;0.10;;
24961;SDS011;12992;50.884;13.668;2023-10-31T07:33:47;0.10;;;0.10;;
24961;SDS011;12992;50.884;13.668;2023-10-31T07:36:12;0.75;;;0.30;;
24961;SDS011;12992;50.884;13.668;2023-10-31T07:38:38;0.00;;;0.00;;
24961;SDS011;12992;50.884;13.668;2023-10-31T07:41:03;0.20;;;0.17;;
24961;SDS011;12992;50.884;13.668;2023-10-31T07:43:29;0.10;;;0.10;;
24961;SDS011;12992;50.884;13.668;2023-10-31T07:45:54;0.10;;;0.10;;
24961;SDS011;12992;50.884;13.668;2023-10-31T07:48:19;0.10;;;0.10;;
24961;SDS011;12992;50.884;13.668;2023-10-31T07:50:45;0.10;;;0.10;;
24961;SDS011;12992;50.884;13.668;2023-10-31T07:53:10;0.10;;;0.10;;
24961;SDS011;12992;50.884;13.668;2023-10-31T07:55:36;0.13;;;0.13;;
24961;SDS011;12992;50.884;13.668;2023-10-31T07:58:01;0.20;;;0.20;;
24961;SDS011;12992;50.884;13.668;2023-10-31T08:00:26;0.28;;;0.25;;
24961;SDS011;12992;50.884;13.668;2023-10-31T08:02:52;0.13;;;0.13;;
24961;SDS011;12992;50.884;13.668;2023-10-31T08:05:17;0.13;;;0.13;;
24961;SDS011;12992;50.884;13.668;2023-10-31T08:07:42;0.20;;;0.20;;
24961;SDS011;12992;50.884;13.668;2023-10-31T08:10:08;0.10;;;0.10;;
24961;SDS011;12992;50.884;13.668;2023-10-31T08:12:34;0.20;;;0.20;;
24961;SDS011;12992;50.884;13.668;2023-10-31T08:14:59;0.13;;;0.13;;
24961;SDS011;12992;50.884;13.668;2023-10-31T08:17:25;0.57;;;0.28;;
24961;SDS011;12992;50.884;13.668;2023-10-31T08:19:51;0.15;;;0.13;;
24961;SDS011;12992;50.884;13.668;2023-10-31T08:22:16;0.22;;;0.22;;
24961;SDS011;12992;50.884;13.668;2023-10-31T08:24:41;0.20;;;0.20;;
24961;SDS011;12992;50.884;13.668;2023-10-31T08:27:07;0.20;;;0.20;;
24961;SDS011;12992;50.884;13.668;2023-10-31T08:29:32;0.15;;;0.15;;
24961;SDS011;12992;50.884;13.668;2023-10-31T08:31:58;0.20;;;0.20;;
24961;SDS011;12992;50.884;13.668;2023-10-31T08:34:23;0.40;;;0.20;;
24961;SDS011;12992;50.884;13.668;2023-10-31T08:36:48;0.20;;;0.20;;
24961;SDS011;12992;50.884;13.668;2023-10-31T08:39:14;0.30;;;0.30;;
24961;SDS011;12992;50.884;13.668;2023-10-31T08:41:49;0.22;;;0.20;;
24961;SDS011;12992;50.884;13.668;2023-10-31T08:44:16;0.00;;;0.00;;
24961;SDS011;12992;50.884;13.668;2023-10-31T08:46:41;0.20;;;0.20;;
24961;SDS011;12992;50.884;13.668;2023-10-31T08:49:07;0.10;;;0.10;;
24961;SDS011;12992;50.884;13.668;2023-10-31T08:51:32;0.25;;;0.20;;
24961;SDS011;12992;50.884;13.668;2023-10-31T08:53:57;0.10;;;0.10;;
24961;SDS011;12992;50.884;13.668;2023-10-31T08:56:22;0.20;;;0.20;;
24961;SDS011;12992;50.884;13.668;2023-10-31T08:58:48;0.20;;;0.20;;
24961;SDS011;12992;50.884;13.668;2023-10-31T09:01:13;0.20;;;0.20;;
24961;SDS011;12992;50.884;13.668;2023-10-31T09:03:39;0.13;;;0.13;;
24961;SDS011;12992;50.884;13.668;2023-10-31T09:06:04;0.10;;;0.10;;
24961;SDS011;12992;50.884;13.668;2023-10-31T09:08:30;0.57;;;0.28;;
24961;SDS011;12992;50.884;13.668;2023-10-31T09:10:56;0.95;;;0.10;;
24961;SDS011;12992;50.884;13.668;2023-10-31T09:13:22;2.50;;;0.20;;
24961;SDS011;12992;50.884;13.668;2023-10-31T09:15:47;0.20;;;0.20;;
24961;SDS011;12992;50.884;13.668;2023-10-31T09:18:14;0.20;;;0.20;;
24961;SDS011;12992;50.884;13.668;2023-10-31T09:20:40;0.40;;;0.40;;
24961;SDS011;12992;50.884;13.668;2023-10-31T09:23:05;0.40;;;0.30;;
24961;SDS011;12992;50.884;13.668;2023-10-31T09:25:30;0.20;;;0.20;;
24961;SDS011;12992;50.884;13.668;2023-10-31T09:27:56;0.20;;;0.20;;
24961;SDS011;12992;50.884;13.668;2023-10-31T09:30:24;0.20;;;0.20;;
24961;SDS011;12992;50.884;13.668;2023-10-31T09:32:49;0.00;;;0.00;;
24961;SDS011;12992;50.884;13.668;2023-10-31T09:35:15;0.10;;;0.10;;
24961;SDS011;12992;50.884;13.668;2023-10-31T09:37:40;0.10;;;0.10;;
24961;SDS011;12992;50.884;13.668;2023-10-31T09:40:06;0.08;;;0.08;;
24961;SDS011;12992;50.884;13.668;2023-10-31T09:42:32;0.10;;;0.10;;
24961;SDS011;12992;50.884;13.668;2023-10-31T09:44:57;0.20;;;0.20;;
24961;SDS011;12992;50.884;13.668;2023-10-31T09:47:23;0.20;;;0.20;;
24961;SDS011;12992;50.884;13.668;2023-10-31T09:49:49;0.28;;;0.28;;
24961;SDS011;12992;50.884;13.668;2023-10-31T09:52:15;0.10;;;0.10;;
24961;SDS011;12992;50.884;13.668;2023-10-31T09:54:41;0.10;;;0.10;;
24961;SDS011;12992;50.884;13.668;2023-10-31T09:57:07;0.10;;;0.10;;
24961;SDS011;12992;50.884;13.668;2023-10-31T09:59:34;0.10;;;0.10;;
24961;SDS011;12992;50.884;13.668;2023-10-31T10:01:59;0.10;;;0.10;;
24961;SDS011;12992;50.884;13.668;2023-10-31T10:04:24;0.32;;;0.20;;
24961;SDS011;12992;50.884;13.668;2023-10-31T10:07:00;0.00;;;0.00;;
24961;SDS011;12992;50.884;13.668;2023-10-31T10:09:27;0.08;;;0.08;;
24961;SDS011;12992;50.884;13.668;2023-10-31T10:11:52;0.00;;;0.00;;
24961;SDS011;12992;50.884;13.668;2023-10-31T10:14:18;0.00;;;0.00;;
24961;SDS011;12992;50.884;13.668;2023-10-31T10:16:44;1.75;;;0.17;;
24961;SDS011;12992;50.884;13.668;2023-10-31T10:19:14;0.47;;;0.20;;
24961;SDS011;12992;50.884;13.668;2023-10-31T10:21:57;0.52;;;0.10;;
24961;SDS011;12992;50.884;13.668;2023-10-31T10:26:50;0.10;;;0.10;;
24961;SDS011;12992;50.884;13.668;2023-10-31T10:29:16;0.10;;;0.10;;
24961;SDS011;12992;50.884;13.668;2023-10-31T10:31:41;0.10;;;0.10;;
24961;SDS011;12992;50.884;13.668;2023-10-31T10:34:07;0.20;;;0.20;;
24961;SDS011;12992;50.884;13.668;2023-10-31T10:36:33;0.00;;;0.00;;
24961;SDS011;12992;50.884;13.668;2023-10-31T10:38:59;0.15;;;0.10;;
24961;SDS011;12992;50.884;13.668;2023-10-31T10:41:25;0.10;;;0.10;;
24961;SDS011;12992;50.884;13.668;2023-10-31T10:43:55;0.10;;;0.10;;
24961;SDS011;12992;50.884;13.668;2023-10-31T10:46:32;0.10;;;0.10;;
24961;SDS011;12992;50.884;13.668;2023-10-31T10:48:59;0.20;;;0.20;;
24961;SDS011;12992;50.884;13.668;2023-10-31T10:51:29;0.10;;;0.10;;
24961;SDS011;12992;50.884;13.668;2023-10-31T10:54:05;0.13;;;0.13;;
24961;SDS011;12992;50.884;13.668;2023-10-31T10:56:57;0.20;;;0.20;;
24961;SDS011;12992;50.884;13.668;2023-10-31T10:59:48;0.08;;;0.08;;
24961;SDS011;12992;50.884;13.668;2023-10-31T11:02:17;0.10;;;0.10;;
24961;SDS011;12992;50.884;13.668;2023-10-31T11:04:43;0.10;;;0.10;;
24961;SDS011;12992;50.884;13.668;2023-10-31T11:07:09;0.10;;;0.10;;
24961;SDS011;12992;50.884;13.668;2023-10-31T11:09:35;0.20;;;0.20;;
24961;SDS011;12992;50.884;13.668;2023-10-31T11:12:02;0.10;;;0.10;;
24961;SDS011;12992;50.884;13.668;2023-10-31T11:14:28;0.32;;;0.20;;
24961;SDS011;12992;50.884;13.668;2023-10-31T11:16:56;0.10;;;0.10;;
24961;SDS011;12992;50.884;13.668;2023-10-31T11:19:25;0.08;;;0.08;;
24961;SDS011;12992;50.884;13.668;2023-10-31T11:21:57;0.17;;;0.17;;
24961;SDS011;12992;50.884;13.668;2023-10-31T11:24:23;0.10;;;0.10;;
24961;SDS011;12992;50.884;13.668;2023-10-31T11:26:53;0.15;;;0.15;;
24961;SDS011;12992;50.884;13.668;2023-10-31T11:29:22;0.05;;;0.05;;
24961;SDS011;12992;50.884;13.668;2023-10-31T11:31:48;0.10;;;0.10;;
24961;SDS011;12992;50.884;13.668;2023-10-31T11:34:15;0.00;;;0.00;;
24961;SDS011;12992;50.884;13.668;2023-10-31T11:36:41;0.10;;;0.10;;
24961;SDS011;12992;50.884;13.668;2023-10-31T11:39:10;0.10;;;0.10;;
24961;SDS011;12992;50.884;13.668;2023-10-31T11:41:40;0.10;;;0.10;;
24961;SDS011;12992;50.884;13.668;2023-10-31T11:44:10;0.15;;;0.15;;
24961;SDS011;12992;50.884;13.668;2023-10-31T11:46:35;0.20;;;0.20;;
24961;SDS011;12992;50.884;13.668;2023-10-31T11:49:01;0.10;;;0.10;;
24961;SDS011;12992;50.884;13.668;2023-10-31T11:51:27;1.15;;;0.40;;
24961;SDS011;12992;50.884;13.668;2023-10-31T11:53:52;0.15;;;0.15;;
24961;SDS011;12992;50.884;13.668;2023-10-31T11:56:21;0.10;;;0.10;;
24961;SDS011;12992;50.884;13.668;2023-10-31T11:59:00;0.10;;;0.10;;
24961;SDS011;12992;50.884;13.668;2023-10-31T12:01:27;0.10;;;0.10;;
24961;SDS011;12992;50.884;13.668;2023-10-31T12:03:52;0.10;;;0.10;;
24961;SDS011;12992;50.884;13.668;2023-10-31T12:06:18;0.60;;;0.20;;
24961;SDS011;12992;50.884;13.668;2023-10-31T12:08:45;0.00;;;0.00;;
24961;SDS011;12992;50.884;13.668;2023-10-31T12:11:13;1.25;;;0.17;;
24961;SDS011;12992;50.884;13.668;2023-10-31T12:16:24;0.30;;;0.30;;
24961;SDS011;12992;50.884;13.668;2023-10-31T12:19:09;1.00;;;0.32;;
24961;SDS011;12992;50.884;13.668;2023-10-31T12:24:04;0.28;;;0.20;;
24961;SDS011;12992;50.884;13.668;2023-10-31T12:26:34;0.10;;;0.10;;
24961;SDS011;12992;50.884;13.668;2023-10-31T12:29:09;0.10;;;0.10;;
24961;SDS011;12992;50.884;13.668;2023-10-31T12:34:43;0.10;;;0.10;;
24961;SDS011;12992;50.884;13.668;2023-10-31T12:37:08;0.10;;;0.10;;
24961;SDS011;12992;50.884;13.668;2023-10-31T12:39:34;0.10;;;0.10;;
24961;SDS011;12992;50.884;13.668;2023-10-31T12:41:59;0.20;;;0.20;;
24961;SDS011;12992;50.884;13.668;2023-10-31T12:44:26;0.10;;;0.10;;
24961;SDS011;12992;50.884;13.668;2023-10-31T12:46:53;0.28;;;0.25;;
24961;SDS011;12992;50.884;13.668;2023-10-31T12:49:18;0.25;;;0.25;;
24961;SDS011;12992;50.884;13.668;2023-10-31T12:51:57;0.13;;;0.13;;
24961;SDS011;12992;50.884;13.668;2023-10-31T12:54:31;0.20;;;0.20;;
24961;SDS011;12992;50.884;13.668;2023-10-31T12:57:01;0.10;;;0.10;;
24961;SDS011;12992;50.884;13.668;2023-10-31T12:59:29;0.45;;;0.20;;
24961;SDS011;12992;50.884;13.668;2023-10-31T13:01:55;0.30;;;0.28;;
24961;SDS011;12992;50.884;13.668;2023-10-31T13:04:24;0.10;;;0.10;;
24961;SDS011;12992;50.884;13.668;2023-10-31T13:11:57;0.50;;;0.13;;
24961;SDS011;12992;50.884;13.668;2023-10-31T13:14:26;0.10;;;0.10;;
24961;SDS011;12992;50.884;13.668;2023-10-31T13:16:52;0.25;;;0.20;;
24961;SDS011;12992;50.884;13.668;2023-10-31T13:19:17;0.20;;;0.20;;
24961;SDS011;12992;50.884;13.668;2023-10-31T13:21:42;0.20;;;0.20;;
24961;SDS011;12992;50.884;13.668;2023-10-31T13:24:08;0.30;;;0.30;;
24961;SDS011;12992;50.884;13.668;2023-10-31T13:26:33;0.10;;;0.10;;
24961;SDS011;12992;50.884;13.668;2023-10-31T13:28:59;0.17;;;0.17;;
24961;SDS011;12992;50.884;13.668;2023-10-31T13:31:25;0.13;;;0.13;;
24961;SDS011;12992;50.884;13.668;2023-10-31T13:33:50;0.32;;;0.32;;
24961;SDS011;12992;50.884;13.668;2023-10-31T13:36:15;0.10;;;0.10;;
24961;SDS011;12992;50.884;13.668;2023-10-31T13:38:41;0.20;;;0.20;;
24961;SDS011;12992;50.884;13.668;2023-10-31T13:41:06;0.20;;;0.20;;
24961;SDS011;12992;50.884;13.668;2023-10-31T13:43:32;0.38;;;0.38;;
24961;SDS011;12992;50.884;13.668;2023-10-31T13:45:57;1.45;;;0.15;;
24961;SDS011;12992;50.884;13.668;2023-10-31T13:48:23;0.10;;;0.10;;
24961;SDS011;12992;50.884;13.668;2023-10-31T13:50:48;0.20;;;0.20;;
24961;SDS011;12992;50.884;13.668;2023-10-31T13:53:14;0.10;;;0.10;;
24961;SDS011;12992;50.884;13.668;2023-10-31T13:55:40;0.20;;;0.10;;
24961;SDS011;12992;50.884;13.668;2023-10-31T13:58:06;0.50;;;0.40;;
24961;SDS011;12992;50.884;13.668;2023-10-31T14:00:32;0.30;;;0.30;;
24961;SDS011;12992;50.884;13.668;2023-10-31T14:02:57;0.13;;;0.13;;
24961;SDS011;12992;50.884;13.668;2023-10-31T14:05:23;0.10;;;0.10;;
24961;SDS011;12992;50.884;13.668;2023-10-31T14:07:49;0.43;;;0.30;;
24961;SDS011;12992;50.884;13.668;2023-10-31T14:10:15;0.20;;;0.20;;
24961;SDS011;12992;50.884;13.668;2023-10-31T14:12:44;0.20;;;0.20;;
24961;SDS011;12992;50.884;13.668;2023-10-31T14:15:11;0.20;;;0.20;;
24961;SDS011;12992;50.884;13.668;2023-10-31T14:17:37;0.30;;;0.30;;
24961;SDS011;12992;50.884;13.668;2023-10-31T14:20:02;0.30;;;0.30;;
24961;SDS011;12992;50.884;13.668;2023-10-31T14:22:29;0.20;;;0.20;;
24961;SDS011;12992;50.884;13.668;2023-10-31T14:24:54;0.30;;;0.30;;
24961;SDS011;12992;50.884;13.668;2023-10-31T14:27:19;0.20;;;0.20;;
24961;SDS011;12992;50.884;13.668;2023-10-31T14:29:45;0.30;;;0.30;;
24961;SDS011;12992;50.884;13.668;2023-10-31T14:32:10;0.28;;;0.28;;
24961;SDS011;12992;50.884;13.668;2023-10-31T14:34:36;0.30;;;0.30;;
24961;SDS011;12992;50.884;13.668;2023-10-31T14:37:01;0.43;;;0.32;;
24961;SDS011;12992;50.884;13.668;2023-10-31T14:39:27;0.20;;;0.20;;
24961;SDS011;12992;50.884;13.668;2023-10-31T14:41:52;0.45;;;0.40;;
24961;SDS011;12992;50.884;13.668;2023-10-31T14:44:17;0.30;;;0.30;;